Time;durP1;ratioP1;P1;durP2;ratioP2;P2;SDS_P1;SDS_P2;PMS_P1;PMS_P2;Temp;Humidity;BMP_temperature;BMP_pressure;BME280_temperature;BME280_humidity;BME280_pressure;Samples;Min_cycle;Max_cycle;Signal;HPM_P1;HPM_P2
2021/05/18 00:00:13;;;;;;;5.47;1.60;;;;;;;23.64;43.89;98630.53;4467807;32;34796;-59
2021/05/18 00:02:41;;;;;;;9.65;2.15;;;;;;;23.63;43.95;98626.97;4467964;32;33557;-59
2021/05/18 00:05:10;;;;;;;4.50;1.73;;;;;;;23.65;43.94;98632.19;4475544;32;34369;-59
2021/05/18 00:07:39;;;;;;;6.00;1.60;;;;;;;23.66;43.71;98631.13;4483540;32;33264;-59
2021/05/18 00:12:54;;;;;;;6.40;1.80;;;;;;;23.64;44.11;98630.53;4483416;32;33798;-58
2021/05/18 00:15:22;;;;;;;4.18;1.85;;;;;;;23.62;44.15;98628.03;4483244;32;33951;-59
2021/05/18 00:17:50;;;;;;;10.32;2.03;;;;;;;23.63;44.07;98632.41;4483203;32;33290;-60
2021/05/18 00:20:18;;;;;;;6.43;1.42;;;;;;;23.63;44.17;98632.41;4482093;32;34863;-59
2021/05/18 00:22:46;;;;;;;7.03;1.80;;;;;;;23.63;44.22;98632.41;4483190;32;33854;-58
2021/05/18 00:25:13;;;;;;;7.18;2.08;;;;;;;23.62;44.17;98625.31;4483217;32;34173;-58
2021/05/18 00:27:41;;;;;;;7.25;1.80;;;;;;;23.62;44.12;98636.22;4483170;32;34999;-59
2021/05/18 00:30:10;;;;;;;6.55;1.73;;;;;;;23.62;44.10;98638.13;4483149;32;33631;-59
2021/05/18 00:32:39;;;;;;;8.38;2.08;;;;;;;23.63;43.96;98646.03;4483094;32;33909;-59
2021/05/18 00:35:11;;;;;;;8.48;1.55;;;;;;;23.66;43.83;98644.72;4483083;32;33720;-59
2021/05/18 00:37:39;;;;;;;9.77;1.80;;;;;;;23.65;43.99;98641.19;4482952;32;33236;-59
2021/05/18 00:40:11;;;;;;;4.40;1.35;;;;;;;23.67;43.85;98646.38;4483088;32;33800;-59
2021/05/18 00:42:50;;;;;;;5.22;1.67;;;;;;;23.66;43.95;98648.28;4482827;32;33908;-59
2021/05/18 00:45:28;;;;;;;7.28;1.75;;;;;;;23.66;43.84;98655.62;4481808;32;33903;-60
2021/05/18 00:48:04;;;;;;;5.93;1.85;;;;;;;23.67;43.86;98657.25;4485014;32;33284;-60
2021/05/18 00:50:33;;;;;;;5.25;1.40;;;;;;;23.66;43.84;98664.63;4484617;32;33796;-61
2021/05/18 00:53:00;;;;;;;5.05;2.30;;;;;;;23.66;43.80;98663.78;4485076;32;33845;-60
2021/05/18 01:00:44;;;;;;;4.55;1.45;;;;;;;23.66;43.69;98677.41;4485041;32;33833;-60
2021/05/18 01:03:12;;;;;;;5.87;1.73;;;;;;;23.65;43.82;98675.78;4484790;32;33731;-60
2021/05/18 01:08:26;;;;;;;5.97;1.80;;;;;;;23.63;44.07;98680.59;4469136;32;34001;-60
2021/05/18 01:10:53;;;;;;;4.82;1.60;;;;;;;23.62;44.15;98687.12;4469317;32;34543;-60
2021/05/18 01:13:23;;;;;;;4.70;1.52;;;;;;;23.62;44.12;98689.84;4479151;32;33425;-60
2021/05/18 01:15:51;;;;;;;5.75;1.60;;;;;;;23.62;44.06;98689.84;4484599;32;33728;-60
2021/05/18 01:18:19;;;;;;;5.37;1.73;;;;;;;23.61;44.04;98693.66;4485070;32;33169;-59
2021/05/18 01:20:56;;;;;;;5.32;1.60;;;;;;;23.61;44.03;98688.22;4483583;32;34837;-60
2021/05/18 01:23:24;;;;;;;7.10;1.75;;;;;;;23.61;44.04;98694.47;4484775;32;34841;-60
2021/05/18 01:25:53;;;;;;;7.47;1.75;;;;;;;23.60;43.99;98695.56;4484743;32;33820;-61
2021/05/18 01:28:21;;;;;;;7.22;1.70;;;;;;;23.59;43.99;98701.25;4484687;32;33358;-60
2021/05/18 01:30:52;;;;;;;5.60;1.65;;;;;;;23.60;44.00;98697.47;4484633;32;34525;-60
2021/05/18 01:33:20;;;;;;;6.07;1.80;;;;;;;23.60;44.01;98695.56;4485017;32;33760;-60
2021/05/18 01:35:48;;;;;;;3.42;1.48;;;;;;;23.59;43.94;98696.63;4484659;32;33812;-59
2021/05/18 01:38:19;;;;;;;11.15;2.28;;;;;;;23.58;43.95;98700.44;4484969;32;33229;-60
2021/05/18 01:43:39;;;;;;;4.28;1.70;;;;;;;23.60;43.96;98713.81;4484858;32;34961;-59
2021/05/18 01:46:07;;;;;;;4.07;1.45;;;;;;;23.59;43.98;98699.34;4484699;32;35352;-59
2021/05/18 01:48:36;;;;;;;6.75;1.58;;;;;;;23.59;43.92;98696.63;4484753;32;32973;-60
2021/05/18 01:51:04;;;;;;;7.35;1.92;;;;;;;23.58;44.01;98713.22;4484859;32;33774;-60
2021/05/18 01:53:32;;;;;;;4.10;1.45;;;;;;;23.58;44.29;98711.31;4484420;32;33767;-59
2021/05/18 01:56:16;;;;;;;6.35;1.37;;;;;;;23.58;44.24;98724.94;4484827;32;33358;-60
2021/05/18 01:58:45;;;;;;;5.10;1.40;;;;;;;23.58;44.12;98715.94;4484573;32;34459;-59
2021/05/18 02:01:14;;;;;;;5.45;1.60;;;;;;;23.58;44.14;98721.37;4484771;32;33681;-60
2021/05/18 02:03:41;;;;;;;5.12;1.65;;;;;;;23.57;44.20;98720.56;4484511;32;33870;-60
2021/05/18 02:06:09;;;;;;;3.08;1.42;;;;;;;23.57;44.19;98725.19;4484070;32;33748;-59
2021/05/18 02:08:37;;;;;;;8.00;1.80;;;;;;;23.56;44.14;98727.09;4484679;32;33510;-59
2021/05/18 02:11:06;;;;;;;7.62;1.50;;;;;;;23.56;44.10;98721.66;4484757;32;34707;-60
2021/05/18 02:13:34;;;;;;;4.55;1.60;;;;;;;23.56;44.12;98735.28;4484639;32;33820;-60
2021/05/18 02:16:10;;;;;;;3.87;1.55;;;;;;;23.55;44.09;98733.63;4484611;32;34414;-59
2021/05/18 02:18:53;;;;;;;3.80;1.40;;;;;;;23.56;44.05;98735.28;4484802;32;34961;-60
2021/05/18 02:26:55;;;;;;;3.70;1.20;;;;;;;23.55;44.01;98739.06;4484321;32;34801;-60
2021/05/18 02:29:23;;;;;;;2.72;1.30;;;;;;;23.54;44.10;98742.84;4484558;32;34495;-60
2021/05/18 02:31:54;;;;;;;3.25;1.23;;;;;;;23.53;44.11;98740.38;4484326;32;34559;-60
2021/05/18 02:34:22;;;;;;;3.15;1.40;;;;;;;23.53;44.08;98738.50;4484402;32;34712;-60
2021/05/18 02:36:50;;;;;;;5.00;1.62;;;;;;;23.53;44.11;98741.22;4484255;32;33775;-60
2021/05/18 02:39:18;;;;;;;4.57;1.50;;;;;;;23.53;44.12;98743.94;4484355;32;33306;-60
2021/05/18 02:41:46;;;;;;;5.20;1.30;;;;;;;23.53;44.08;98738.50;4484572;32;33862;-60
2021/05/18 02:44:22;;;;;;;4.43;1.58;;;;;;;23.54;43.85;98748.28;4484092;32;34931;-60
2021/05/18 02:49:38;;;;;;;4.68;1.42;;;;;;;23.54;44.13;98751.03;4484386;32;33582;-60
2021/05/18 02:52:06;;;;;;;3.83;1.40;;;;;;;23.52;44.12;98750.47;4484518;32;35110;-59
2021/05/18 02:54:36;;;;;;;5.87;1.83;;;;;;;23.53;44.08;98756.72;4484280;32;32340;-61
2021/05/18 02:57:07;;;;;;;7.25;1.23;;;;;;;23.54;44.00;98758.37;4484391;32;33937;-61
2021/05/18 02:59:34;;;;;;;5.03;1.50;;;;;;;23.53;44.00;98759.44;4484248;32;33399;-60
2021/05/18 03:02:02;;;;;;;7.37;1.62;;;;;;;23.54;44.01;98758.37;4484032;32;33526;-60
2021/05/18 03:04:30;;;;;;;9.05;1.90;;;;;;;23.53;44.21;98763.00;4484294;32;34693;-60
2021/05/18 03:06:58;;;;;;;3.70;1.50;;;;;;;23.53;44.21;98770.34;4480436;32;33830;-60
2021/05/18 03:09:26;;;;;;;5.93;1.50;;;;;;;23.53;44.21;98775.78;4467680;32;33833;-60
2021/05/18 03:11:54;;;;;;;4.05;1.20;;;;;;;23.53;44.19;98778.50;4468454;32;33806;-60
2021/05/18 03:14:22;;;;;;;5.80;1.40;;;;;;;23.52;44.08;98769.53;4468344;32;33941;-60
2021/05/18 03:16:50;;;;;;;4.85;1.77;;;;;;;23.52;44.22;98777.69;4468364;32;33513;-59
2021/05/18 03:19:18;;;;;;;6.55;1.37;;;;;;;23.52;44.23;98777.69;4471197;32;33304;-59
2021/05/18 03:21:46;;;;;;;5.60;1.45;;;;;;;23.52;44.20;98782.31;4472182;32;34843;-59
2021/05/18 03:24:13;;;;;;;6.15;1.17;;;;;;;23.52;44.20;98783.13;4478221;32;34851;-59
2021/05/18 03:26:45;;;;;;;3.90;1.37;;;;;;;23.52;44.18;98791.31;4482509;32;34767;-59
2021/05/18 03:34:34;;;;;;;3.53;1.37;;;;;;;23.51;44.16;98795.09;4483414;32;34638;-59
2021/05/18 03:37:13;;;;;;;5.87;1.40;;;;;;;23.50;44.17;98801.62;4483784;32;33648;-60
2021/05/18 03:39:42;;;;;;;3.83;1.47;;;;;;;23.50;44.09;98801.62;4483940;32;33287;-59
2021/05/18 04:04:20;;;;;;;4.32;1.45;;;;;;;23.50;43.99;98828.84;4483367;32;33753;-60
2021/05/18 04:18:06;;;;;;;3.87;1.35;;;;;;;23.47;44.19;98836.69;4480054;32;34648;-59
2021/05/18 04:52:32;;;;;;;6.25;1.23;;;;;;;23.45;44.18;98850.53;4484924;32;33939;-58
2021/05/18 05:08:31;;;;;;;6.05;1.30;;;;;;;23.42;43.92;98856.50;4484555;32;34695;-59
2021/05/18 05:16:13;;;;;;;4.00;1.12;;;;;;;23.41;43.78;98854.84;4484935;32;34873;-59
2021/05/18 05:18:41;;;;;;;18.75;3.05;;;;;;;23.40;43.78;98869.53;4485030;32;33785;-59
2021/05/18 05:21:09;;;;;;;17.17;2.20;;;;;;;23.38;41.88;98867.06;4484896;32;33282;-58
2021/05/18 05:23:37;;;;;;;10.65;1.85;;;;;;;23.35;41.81;98866.72;4484513;32;33878;-59
2021/05/18 05:26:05;;;;;;;11.55;2.00;;;;;;;23.34;41.95;98865.06;4482968;32;33247;-57
2021/05/18 05:28:32;;;;;;;19.83;1.95;;;;;;;23.33;42.06;98866.97;4484971;32;34601;-60
2021/05/18 05:31:01;;;;;;;13.05;1.62;;;;;;;23.33;42.12;98864.25;4484187;32;33930;-56
2021/05/18 05:33:28;;;;;;;18.77;2.08;;;;;;;23.32;42.22;98859.06;4483246;32;34076;-60
2021/05/18 05:35:56;;;;;;;10.35;1.62;;;;;;;23.32;42.24;98868.06;4482997;32;34815;-62
2021/05/18 05:38:25;;;;;;;13.10;2.60;;;;;;;23.32;42.23;98868.06;4483222;32;34761;-60
2021/05/18 05:40:52;;;;;;;9.30;1.60;;;;;;;23.33;42.27;98871.59;4483943;32;34645;-59
2021/05/18 05:43:20;;;;;;;11.20;1.70;;;;;;;23.33;42.31;98874.31;4483832;32;34848;-58
2021/05/18 05:45:50;;;;;;;10.15;2.00;;;;;;;23.33;42.31;98860.72;4484253;32;33361;-61
2021/05/18 05:48:20;;;;;;;8.30;1.50;;;;;;;23.33;42.30;98860.72;4484068;32;34513;-60
2021/05/18 05:50:48;;;;;;;10.68;1.90;;;;;;;23.33;42.32;98869.69;4484772;32;33834;-59
2021/05/18 05:53:15;;;;;;;8.13;2.60;;;;;;;23.33;42.32;98864.25;4484694;32;33865;-60
2021/05/18 05:55:43;;;;;;;11.43;1.70;;;;;;;23.32;42.33;98870.78;4484467;32;34346;-58
2021/05/18 05:58:11;;;;;;;11.43;1.70;;;;;;;23.33;42.38;98879.75;4484569;32;33652;-59
2021/05/18 06:00:39;;;;;;;10.30;1.48;;;;;;;23.32;42.40;98881.66;4484598;32;33891;-61
2021/05/18 06:03:06;;;;;;;8.73;1.62;;;;;;;23.32;42.43;98872.69;4484518;32;33934;-61
2021/05/18 06:05:34;;;;;;;10.50;2.08;;;;;;;23.33;42.39;98877.03;4484561;32;33291;-60
2021/05/18 06:08:02;;;;;;;5.20;1.58;;;;;;;23.32;42.42;98869.97;4484767;32;33481;-58
2021/05/18 06:10:36;;;;;;;11.70;1.92;;;;;;;23.33;42.42;98885.22;4484331;32;34531;-58
2021/05/18 06:43:29;;;;;;;6.22;1.20;;;;;;;23.30;42.56;98935.50;4473917;32;33954;-59
2021/05/18 06:48:24;;;;;;;7.40;1.40;;;;;;;23.30;42.55;98940.94;4484308;32;33114;-59
2021/05/18 06:50:52;;;;;;;5.75;1.27;;;;;;;23.32;42.55;98957.06;4474025;32;33526;-60
2021/05/18 06:53:20;;;;;;;8.30;1.50;;;;;;;23.30;42.55;98946.41;4484156;32;33863;-60
2021/05/18 06:55:49;;;;;;;9.93;1.65;;;;;;;23.31;42.55;98955.38;4479782;32;33811;-60
2021/05/18 06:58:49;;;;;;;5.72;1.52;;;;;;;23.32;42.54;98967.94;4479718;32;32977;-59
2021/05/18 07:01:16;;;;;;;6.32;1.20;;;;;;;23.34;42.50;98958.44;4484093;32;33920;-59
2021/05/18 07:03:59;;;;;;;7.35;1.33;;;;;;;23.33;42.51;98964.97;4484060;32;34785;-59
2021/05/18 07:09:04;;;;;;;6.28;1.73;;;;;;;23.35;42.51;98970.16;4480346;32;34014;-59
2021/05/18 07:11:32;;;;;;;4.60;1.12;;;;;;;23.33;42.53;98978.59;4468226;32;33831;-59
2021/05/18 07:14:01;;;;;;;5.25;1.27;;;;;;;23.33;42.51;98975.03;4468417;32;34047;-59
2021/05/18 07:16:28;;;;;;;4.62;1.20;;;;;;;23.34;42.50;98973.97;4476088;32;33894;-58
2021/05/18 07:18:56;;;;;;;6.57;1.35;;;;;;;23.34;42.49;98972.06;4483897;32;34342;-59
2021/05/18 07:21:24;;;;;;;4.03;1.05;;;;;;;23.35;42.49;98981.03;4483886;32;33728;-60
2021/05/18 07:23:52;;;;;;;3.65;1.20;;;;;;;23.34;42.50;98979.41;4484080;32;33923;-59
2021/05/18 07:26:20;;;;;;;5.28;1.15;;;;;;;23.35;42.48;98983.78;4484060;32;33810;-59
2021/05/18 07:28:48;;;;;;;6.37;1.10;;;;;;;23.35;42.46;98981.03;4483862;32;33315;-60
2021/05/18 07:31:15;;;;;;;5.22;1.30;;;;;;;23.35;42.45;98981.88;4483758;32;33857;-60
2021/05/18 07:33:43;;;;;;;4.05;0.95;;;;;;;23.36;42.44;98985.41;4482960;32;33809;-58
2021/05/18 07:36:11;;;;;;;8.32;1.27;;;;;;;23.35;42.43;98979.16;4483843;32;33840;-58
2021/05/18 07:38:40;;;;;;;3.78;1.30;;;;;;;23.35;42.42;98979.16;4484030;32;34339;-58
2021/05/18 07:41:08;;;;;;;6.15;1.35;;;;;;;23.36;42.42;98990.84;4483787;32;33590;-57
2021/05/18 07:43:36;;;;;;;3.00;0.95;;;;;;;23.37;42.39;98981.66;4483745;32;33870;-59
2021/05/18 07:46:05;;;;;;;5.87;1.20;;;;;;;23.36;42.39;98997.16;4483291;32;33873;-59
2021/05/18 07:59:21;;;;;;;3.35;1.17;;;;;;;23.38;42.37;98996.91;4475466;32;33346;-60
2021/05/18 08:07:21;;;;;;;3.20;0.90;;;;;;;23.37;42.38;99006.16;4483181;32;34480;-60
2021/05/18 08:12:42;;;;;;;3.70;1.00;;;;;;;23.36;42.39;99013.50;4469813;32;33653;-60
2021/05/18 08:47:07;;;;;;;2.12;0.80;;;;;;;23.36;42.37;99015.34;4467412;32;33862;-60
2021/05/18 09:48:00;;;;;;;1.65;0.82;;;;;;;23.27;42.41;99074.84;4484492;32;33673;-60
2021/05/18 10:16:48;;;;;;;2.30;0.80;;;;;;;23.28;42.39;99075.66;4480054;32;34435;-59
2021/05/18 10:36:15;;;;;;;2.17;0.88;;;;;;;23.28;42.35;99068.31;4482685;32;34042;-59
2021/05/18 10:38:48;;;;;;;2.40;0.77;;;;;;;23.27;42.35;99068.53;4483325;32;33775;-59
2021/05/18 10:41:19;;;;;;;2.53;0.90;;;;;;;23.28;42.34;99059.31;4484386;32;34632;-59
2021/05/18 10:44:03;;;;;;;2.22;0.90;;;;;;;23.28;42.35;99070.22;4484352;32;33810;-58
2021/05/18 10:46:34;;;;;;;2.95;1.08;;;;;;;23.28;42.32;99071.03;4484632;32;33387;-59
2021/05/18 10:49:05;;;;;;;1.23;0.80;;;;;;;23.27;42.35;99074.84;4478713;32;33876;-60
2021/05/18 10:51:36;;;;;;;2.75;0.98;;;;;;;23.26;42.35;99081.31;4468387;32;33914;-59
2021/05/18 10:54:19;;;;;;;1.95;0.90;;;;;;;23.27;42.34;99093.87;4468483;32;34067;-59
2021/05/18 10:56:53;;;;;;;1.98;0.60;;;;;;;23.28;42.32;99076.47;4468428;32;33489;-59
2021/05/18 10:59:21;;;;;;;2.47;0.93;;;;;;;23.27;42.34;99077.56;4468570;32;33600;-59
2021/05/18 11:01:49;;;;;;;3.12;0.85;;;;;;;23.27;42.35;99106.66;4483557;32;34471;-57
2021/05/18 11:04:16;;;;;;;3.10;0.90;;;;;;;23.26;42.32;99119.44;4483748;32;33824;-59
2021/05/18 11:06:55;;;;;;;2.83;0.90;;;;;;;23.27;42.33;99126.56;4484369;32;33382;-60
2021/05/18 11:09:23;;;;;;;3.28;1.00;;;;;;;23.28;42.30;99130.09;4483887;32;34487;-59
2021/05/18 11:12:09;;;;;;;1.62;0.85;;;;;;;23.27;42.31;99131.13;4473152;32;34930;-59
2021/05/18 11:14:47;;;;;;;1.83;0.85;;;;;;;23.29;42.28;99118.13;4467046;32;34449;-60
2021/05/18 11:17:17;;;;;;;1.55;0.60;;;;;;;23.27;42.29;99117.53;4468469;32;34421;-60
2021/05/18 11:20:08;;;;;;;2.12;0.88;;;;;;;23.27;42.29;99106.66;4468096;32;34387;-59
2021/05/18 11:25:36;;;;;;;1.10;0.70;;;;;;;23.29;42.25;99093.63;4480256;32;33809;-59
2021/05/18 11:28:09;;;;;;;4.03;0.90;;;;;;;23.27;42.30;99093.03;4484213;32;33283;-58
2021/05/18 11:30:36;;;;;;;1.90;0.80;;;;;;;23.26;42.28;99092.22;4483500;32;33656;-59
2021/05/18 11:33:04;;;;;;;2.20;0.70;;;;;;;23.26;42.27;99084.03;4483913;32;34977;-60
2021/05/18 11:35:32;;;;;;;3.97;0.82;;;;;;;23.27;42.27;99095.75;4471564;32;34331;-60
2021/05/18 11:38:14;;;;;;;1.42;0.80;;;;;;;23.25;42.28;99090.56;4468037;32;33247;-59
2021/05/18 11:40:44;;;;;;;1.52;0.68;;;;;;;23.28;42.25;99094.72;4468206;32;33863;-59
2021/05/18 11:43:17;;;;;;;0.98;0.62;;;;;;;23.26;42.28;99096.84;4468080;32;34517;-59
2021/05/18 11:45:49;;;;;;;2.80;0.80;;;;;;;23.25;42.26;99104.19;4466916;32;34975;-58
2021/05/18 11:48:20;;;;;;;1.30;0.80;;;;;;;23.25;42.26;99101.47;4467990;32;34316;-59
2021/05/18 11:51:00;;;;;;;3.15;0.70;;;;;;;23.25;42.26;99093.28;4468002;32;33816;-59
2021/05/18 11:53:28;;;;;;;1.90;0.70;;;;;;;23.27;42.25;99095.75;4467911;32;33984;-60
2021/05/18 11:55:56;;;;;;;2.40;0.70;;;;;;;23.25;42.27;99096.00;4468009;32;34540;-59
2021/05/18 11:58:24;;;;;;;1.50;0.70;;;;;;;23.25;42.26;99087.03;4466758;32;33955;-59
2021/05/18 12:00:51;;;;;;;1.70;0.73;;;;;;;23.25;42.26;99084.31;4465525;32;33836;-59
2021/05/18 12:03:19;;;;;;;1.37;0.75;;;;;;;23.25;42.25;99093.28;4466756;32;33514;-59
2021/05/18 12:05:52;;;;;;;1.62;0.68;;;;;;;23.25;42.24;99087.84;4475005;32;34589;-59
2021/05/18 12:08:33;;;;;;;0.75;0.60;;;;;;;23.26;42.25;99088.66;4477157;32;34121;-60
2021/05/18 12:11:21;;;;;;;1.70;0.88;;;;;;;23.26;42.23;99083.22;4470322;32;34654;-60
2021/05/18 12:13:50;;;;;;;2.72;0.80;;;;;;;23.26;42.21;99084.03;4476658;32;33511;-60
2021/05/18 12:16:20;;;;;;;2.30;0.80;;;;;;;23.25;42.24;99078.84;4467729;32;34306;-61
2021/05/18 12:18:57;;;;;;;3.37;0.80;;;;;;;23.26;42.21;99084.03;4467728;32;33453;-60
2021/05/18 12:21:29;;;;;;;3.28;0.90;;;;;;;23.26;42.35;99073.16;4467619;32;33772;-62
2021/05/18 12:24:17;;;;;;;12.50;1.62;;;;;;;23.24;42.20;99072.59;4475739;32;33812;-61
2021/05/18 12:26:52;;;;;;;18.15;1.60;;;;;;;23.25;41.56;99070.69;4483476;32;33763;-62
2021/05/18 12:29:43;;;;;;;11.93;1.80;;;;;;;23.20;41.82;99065.16;4483262;32;33368;-62
2021/05/18 12:32:22;;;;;;;10.15;1.70;;;;;;;23.22;41.82;99055.66;4483216;32;33449;-61
2021/05/18 12:35:10;;;;;;;9.82;1.50;;;;;;;23.18;41.95;99059.97;4482880;32;34508;-61
2021/05/18 12:37:52;;;;;;;10.93;1.83;;;;;;;23.19;41.92;99064.31;4482626;31;34075;-61
2021/05/18 12:40:26;;;;;;;12.07;2.08;;;;;;;23.20;41.94;99065.16;4483070;32;33581;-61
2021/05/18 12:42:55;;;;;;;15.15;1.85;;;;;;;23.19;41.88;99053.44;4484914;32;33410;-61
2021/05/18 12:45:24;;;;;;;6.70;1.52;;;;;;;23.19;41.85;99066.22;4485105;32;34928;-61
2021/05/18 12:48:00;;;;;;;13.37;2.03;;;;;;;23.20;41.78;99071.41;4485220;32;33655;-61
2021/05/18 12:50:48;;;;;;;17.65;1.95;;;;;;;23.20;41.72;99063.25;4484864;32;33463;-61
2021/05/18 12:53:26;;;;;;;17.30;2.03;;;;;;;23.23;41.62;99061.97;4485229;32;33437;-61
2021/05/18 12:55:54;;;;;;;8.55;1.60;;;;;;;23.21;41.76;99075.78;4485232;32;33822;-62
2021/05/18 12:58:32;;;;;;;11.45;1.37;;;;;;;23.21;41.74;99069.53;4485096;32;34723;-61
2021/05/18 13:01:10;;;;;;;15.70;1.73;;;;;;;23.22;41.65;99072.00;4480738;32;33511;-61
2021/05/18 13:03:38;;;;;;;7.00;1.42;;;;;;;23.22;41.63;99080.16;4485062;32;33773;-60
2021/05/18 13:06:06;;;;;;;11.65;1.73;;;;;;;23.21;41.65;99083.94;4483526;32;33787;-61
2021/05/18 13:08:38;;;;;;;15.40;1.90;;;;;;;23.21;41.67;99075.78;4485010;32;33660;-62
2021/05/18 13:11:18;;;;;;;7.75;1.95;;;;;;;23.22;41.70;99082.06;4484947;32;33955;-62
2021/05/18 13:13:50;;;;;;;;;;;;;;;23.22;41.71;99079.34;4485310;32;33713;-60
2021/05/18 13:16:21;;;;;;;5.12;1.00;;;;;;;23.32;41.48;99074.09;4484999;32;33859;-62
2021/05/18 13:18:52;;;;;;;8.75;1.30;;;;;;;23.24;41.68;99077.22;4484822;32;33764;-62
2021/05/18 13:21:21;;;;;;;8.13;1.65;;;;;;;23.21;41.74;99083.94;4485263;32;33336;-62
2021/05/18 13:26:26;;;;;;;6.80;1.45;;;;;;;23.22;41.77;99082.06;4484914;32;34779;-62
2021/05/18 13:29:08;;;;;;;4.55;1.27;;;;;;;23.21;41.79;99077.69;4485072;32;33985;-62
2021/05/18 13:31:37;;;;;;;9.18;1.40;;;;;;;23.22;41.77;99072.00;4484847;32;33507;-62
2021/05/18 13:34:06;;;;;;;8.18;1.35;;;;;;;23.21;41.81;99073.06;4484915;32;33517;-61
2021/05/18 13:36:43;;;;;;;6.50;1.33;;;;;;;23.22;41.79;99076.59;4484444;32;33853;-61
2021/05/18 13:39:22;;;;;;;10.02;1.12;;;;;;;23.21;41.79;99083.94;4484918;32;33613;-62
2021/05/18 13:41:50;;;;;;;10.90;1.30;;;;;;;23.22;41.80;99080.16;4484589;32;34086;-61
2021/05/18 13:44:18;;;;;;;4.97;1.42;;;;;;;23.22;41.81;99071.16;4484826;32;33824;-62
2021/05/18 13:46:46;;;;;;;4.00;1.10;;;;;;;23.21;41.81;99073.06;4484691;32;35271;-60
2021/05/18 13:49:14;;;;;;;8.10;1.40;;;;;;;23.22;41.80;99065.72;4484553;32;33786;-62
2021/05/18 13:51:45;;;;;;;5.03;1.00;;;;;;;23.22;41.80;99066.53;4484197;32;33282;-61
2021/05/18 13:54:30;;;;;;;7.93;1.55;;;;;;;23.22;41.81;99077.44;4484549;32;33799;-62
2021/05/18 13:56:59;;;;;;;5.18;1.12;;;;;;;23.22;41.77;99074.72;4480951;32;33822;-60
2021/05/18 13:59:28;;;;;;;4.70;1.20;;;;;;;23.22;41.80;99069.28;4482887;32;34773;-61
2021/05/18 14:01:56;;;;;;;4.18;1.20;;;;;;;23.22;41.81;99082.88;4468794;32;32967;-61
2021/05/18 14:04:24;;;;;;;9.38;1.55;;;;;;;23.23;41.80;99075.56;4468858;32;34512;-61
2021/05/18 14:07:39;;;;;;;4.53;1.12;;;;;;;23.23;41.80;99083.72;4471411;32;33845;-62
2021/05/18 14:10:04;;;;;;;4.47;1.45;;;;;;;23.21;41.81;99072.25;4483107;32;33463;-61
2021/05/18 14:12:31;;;;;;;7.25;1.37;;;;;;;23.23;41.77;99078.28;4484087;32;34516;-61
2021/05/18 14:14:59;;;;;;;5.85;1.08;;;;;;;23.22;41.80;99073.88;4484294;32;33830;-62
2021/05/18 14:17:27;;;;;;;3.67;1.23;;;;;;;23.22;41.80;99077.44;4484488;32;33872;-61
2021/05/18 14:19:54;;;;;;;4.43;1.02;;;;;;;23.23;41.79;99073.66;4484509;32;34047;-61
2021/05/18 14:22:22;;;;;;;5.57;1.37;;;;;;;23.22;41.80;99082.06;4484541;32;32745;-61
2021/05/18 14:25:04;;;;;;;3.60;1.15;;;;;;;23.22;41.80;99079.34;4484601;32;33759;-61
2021/05/18 14:27:32;;;;;;;5.55;1.10;;;;;;;23.22;41.80;99076.59;4484461;32;34006;-61
2021/05/18 14:30:00;;;;;;;5.97;0.90;;;;;;;23.22;41.80;99076.59;4484479;32;33501;-62
2021/05/18 14:32:28;;;;;;;4.05;1.02;;;;;;;23.22;41.80;99076.59;4484306;32;34251;-62
2021/05/18 14:34:56;;;;;;;7.00;1.20;;;;;;;23.22;41.79;99076.59;4479370;32;34481;-61
2021/05/18 14:37:24;;;;;;;2.53;0.88;;;;;;;23.21;41.78;99059.47;4477492;32;33695;-61
2021/05/18 14:45:12;;;;;;;4.28;1.17;;;;;;;23.22;41.79;99068.44;4484051;32;34466;-61
2021/05/18 14:47:51;;;;;;;5.00;1.00;;;;;;;23.21;41.81;99081.22;4484304;32;33965;-61
2021/05/18 14:55:52;;;;;;;3.60;0.80;;;;;;;23.21;41.81;99078.50;4484339;32;33880;-62
2021/05/18 14:58:19;;;;;;;5.10;1.12;;;;;;;23.21;41.82;99074.97;4484157;32;33962;-61
2021/05/18 15:00:47;;;;;;;5.70;0.93;;;;;;;23.20;41.82;99076.03;4484338;32;33760;-61
2021/05/18 15:03:15;;;;;;;4.95;1.20;;;;;;;23.21;41.81;99088.56;4483603;32;34386;-61
2021/05/18 15:05:42;;;;;;;4.55;1.23;;;;;;;23.21;41.81;99096.72;4483817;31;33675;-61
2021/05/18 15:08:10;;;;;;;2.67;1.00;;;;;;;23.21;41.78;99088.56;4483947;32;33885;-61
2021/05/18 15:10:53;;;;;;;2.83;0.93;;;;;;;23.21;41.79;99096.72;4484108;32;33808;-62
2021/05/18 15:13:20;;;;;;;;;;;;;;;23.22;41.76;99092.94;4484669;32;34042;-62
2021/05/18 15:15:47;;;;;;;2.45;0.80;;;;;;;23.30;41.60;99098.81;4476345;32;34683;-59
2021/05/18 15:18:16;;;;;;;4.30;1.00;;;;;;;23.23;41.75;99105.50;4475307;32;33924;-60
2021/05/18 15:20:44;;;;;;;2.90;0.95;;;;;;;23.23;41.87;99094.63;4483537;32;33948;-59
2021/05/18 15:23:12;;;;;;;5.75;1.62;;;;;;;23.24;41.91;99107.97;4484154;32;34116;-60
2021/05/18 15:25:40;;;;;;;4.28;1.15;;;;;;;23.24;41.96;99116.13;4471650;32;33563;-60
2021/05/18 15:28:08;;;;;;;3.35;0.80;;;;;;;23.26;41.99;99119.44;4467966;32;35060;-60
2021/05/18 15:30:35;;;;;;;3.28;0.98;;;;;;;23.29;42.03;99120.84;4468008;32;34603;-60
2021/05/18 15:33:03;;;;;;;5.85;1.08;;;;;;;23.29;42.10;99120.84;4474171;32;33420;-60
2021/05/18 15:35:31;;;;;;;7.00;1.30;;;;;;;23.27;42.31;99132.00;4482127;32;34473;-61
2021/05/18 15:37:59;;;;;;;4.68;1.08;;;;;;;23.28;42.27;99122.75;4483344;32;34512;-59
2021/05/18 15:40:27;;;;;;;3.78;1.02;;;;;;;23.31;42.36;99124.16;4483689;32;34713;-60
2021/05/18 15:42:54;;;;;;;5.22;1.20;;;;;;;23.29;42.44;99123.59;4483516;32;34020;-60
2021/05/18 15:45:22;;;;;;;12.23;1.35;;;;;;;23.30;42.48;99115.16;4483767;32;33523;-60
2021/05/18 15:47:49;;;;;;;9.77;1.30;;;;;;;23.32;42.52;99115.75;4483568;32;33629;-59
2021/05/18 15:50:17;;;;;;;5.05;1.12;;;;;;;23.33;42.47;99111.16;4483460;32;34542;-60
2021/05/18 15:52:45;;;;;;;6.60;1.10;;;;;;;23.34;42.47;99112.78;4483530;32;34505;-59
2021/05/18 15:55:12;;;;;;;6.53;1.70;;;;;;;23.35;42.52;99109.81;4483526;32;34764;-59
2021/05/18 15:57:40;;;;;;;5.10;1.17;;;;;;;23.37;42.43;99104.16;4483184;32;33190;-61
2021/05/18 16:00:08;;;;;;;7.37;1.50;;;;;;;23.36;42.48;99106.03;4483109;32;34077;-59
2021/05/18 16:02:39;;;;;;;7.15;1.25;;;;;;;23.38;42.51;99111.25;4483232;32;33220;-60
2021/05/18 16:05:07;;;;;;;5.07;1.50;;;;;;;23.39;42.51;99118.31;4483077;32;35002;-60
2021/05/18 16:07:36;;;;;;;5.12;1.20;;;;;;;23.37;42.53;99115.84;4483173;32;34834;-60
2021/05/18 16:10:04;;;;;;;6.57;1.40;;;;;;;23.39;42.52;99130.03;4473486;32;33654;-60
2021/05/18 16:12:32;;;;;;;5.72;1.20;;;;;;;23.43;42.48;99122.22;4467620;32;33503;-59
2021/05/18 16:14:59;;;;;;;5.87;1.00;;;;;;;23.41;42.48;99125.19;4482958;32;33710;-58
2021/05/18 16:17:27;;;;;;;4.22;1.25;;;;;;;23.42;42.49;99126.84;4483453;32;33807;-60
2021/05/18 16:19:55;;;;;;;4.82;1.17;;;;;;;23.44;42.45;99121.16;4482845;32;33812;-59
2021/05/18 16:22:22;;;;;;;4.95;0.80;;;;;;;23.41;42.49;99125.19;4483092;32;34331;-60
2021/05/18 16:24:51;;;;;;;7.57;1.33;;;;;;;23.45;42.46;99132.87;4482995;32;34560;-60
2021/05/18 16:27:18;;;;;;;6.68;1.40;;;;;;;23.43;42.48;99124.94;4482857;32;33647;-61
2021/05/18 16:29:51;;;;;;;5.87;1.87;;;;;;;23.46;42.43;99124.47;4483144;32;34212;-58
2021/05/18 16:32:19;;;;;;;6.93;2.10;;;;;;;23.46;42.51;99131.81;4482912;32;34233;-58
2021/05/18 16:34:51;;;;;;;6.37;1.35;;;;;;;23.42;42.59;99121.41;4483054;32;34717;-60
2021/05/18 16:37:19;;;;;;;6.95;1.50;;;;;;;23.43;42.64;99120.31;4473855;32;33809;-60
2021/05/18 16:39:47;;;;;;;5.80;1.55;;;;;;;23.45;42.54;99119.25;4467062;32;33342;-60
2021/05/18 16:42:14;;;;;;;6.32;1.08;;;;;;;23.47;42.50;99131.56;4466913;32;33079;-60
2021/05/18 16:44:43;;;;;;;5.95;1.50;;;;;;;23.48;42.51;99126.94;4467123;32;33728;-60
2021/05/18 16:47:17;;;;;;;5.40;1.25;;;;;;;23.46;42.58;99131.81;4467032;32;34919;-60
2021/05/18 16:49:46;;;;;;;3.78;1.35;;;;;;;23.46;42.52;99127.19;4467066;32;34019;-60
2021/05/18 16:52:13;;;;;;;5.80;1.52;;;;;;;23.46;42.61;99126.38;4467290;32;34327;-60
2021/05/18 16:54:41;;;;;;;5.22;1.30;;;;;;;23.43;42.63;99128.50;4466591;32;33711;-60
2021/05/18 16:57:09;;;;;;;6.07;1.70;;;;;;;23.42;42.60;99131.47;4467315;32;33834;-61
2021/05/18 16:59:37;;;;;;;5.07;1.55;;;;;;;23.41;42.60;99130.66;4467060;32;33651;-60
2021/05/18 17:02:04;;;;;;;7.80;1.50;;;;;;;23.40;42.59;99131.69;4467176;32;33328;-60